createdAt,value
2018-04-15T00:00:08.172Z,72.30
2018-04-15T00:01:13.948Z,72.43
2018-04-15T00:02:19.728Z,72.50
2018-04-15T00:03:25.319Z,72.70
2018-04-15T00:04:31.859Z,72.76
2018-04-15T00:05:38.415Z,72.52
2018-04-15T00:06:44.195Z,72.37
2018-04-15T00:07:49.975Z,72.27
2018-04-15T00:08:55.771Z,72.27
2018-04-15T00:10:01.567Z,72.34
2018-04-15T00:11:07.547Z,72.45
2018-04-15T00:12:14.079Z,72.58
2018-04-15T00:13:19.842Z,72.79
2018-04-15T00:14:26.420Z,72.68
2018-04-15T00:15:32.207Z,72.56
2018-04-15T00:16:37.977Z,72.52
2018-04-15T00:17:44.516Z,72.57
2018-04-15T00:18:50.286Z,72.68
2018-04-15T00:19:56.851Z,72.76
2018-04-15T00:21:03.392Z,72.66
2018-04-15T00:22:09.163Z,72.53
2018-04-15T00:23:14.936Z,72.33
2018-04-15T00:24:20.767Z,72.19
2018-04-15T00:25:26.560Z,72.07
2018-04-15T00:26:32.331Z,72.01
2018-04-15T00:27:38.192Z,71.95
2018-04-15T00:28:43.994Z,71.93
2018-04-15T00:29:49.982Z,71.93
2018-04-15T00:30:56.524Z,71.93
2018-04-15T00:32:03.062Z,71.94
2018-04-15T00:33:08.856Z,71.96
2018-04-15T00:34:14.635Z,71.96
2018-04-15T00:35:20.428Z,71.96
2018-04-15T00:36:26.216Z,72.01
2018-04-15T00:37:32.008Z,72.07
2018-04-15T00:38:37.997Z,72.07
2018-04-15T00:39:43.758Z,72.08
2018-04-15T00:40:49.529Z,72.19
2018-04-15T00:41:56.086Z,72.26
2018-04-15T00:43:02.607Z,72.32
2018-04-15T00:44:08.385Z,72.43
2018-04-15T00:45:14.936Z,72.50
2018-04-15T00:46:21.475Z,72.65
2018-04-15T00:47:27.281Z,72.78
2018-04-15T00:48:33.050Z,72.96
2018-04-15T00:49:38.866Z,72.97
2018-04-15T00:50:44.623Z,73.02
2018-04-15T00:51:50.387Z,72.96
2018-04-15T00:52:56.942Z,72.99
2018-04-15T00:54:17.707Z,73.08
2018-04-15T00:55:23.487Z,73.12
2018-04-15T00:56:29.261Z,73.16
2018-04-15T00:57:35.040Z,73.28
2018-04-15T00:58:40.841Z,73.27
2018-04-15T00:59:47.388Z,73.29
2018-04-15T01:00:53.927Z,73.41
2018-04-15T01:01:59.722Z,73.54
2018-04-15T01:03:05.156Z,73.64
2018-04-15T01:04:10.959Z,73.72
2018-04-15T01:05:16.758Z,73.76
2018-04-15T01:06:22.513Z,73.77
2018-04-15T01:07:28.417Z,73.84
2018-04-15T01:08:34.954Z,73.91
2018-04-15T01:09:40.751Z,73.90
2018-04-15T01:10:46.519Z,73.80
2018-04-15T01:11:52.310Z,73.82
2018-04-15T01:12:58.070Z,73.79
2018-04-15T01:14:04.072Z,73.81
2018-04-15T01:15:11.931Z,73.88
2018-04-15T01:16:17.483Z,73.88
2018-04-15T01:17:23.254Z,73.90
2018-04-15T01:18:29.924Z,73.91
2018-04-15T01:19:35.352Z,73.89
2018-04-15T01:20:41.163Z,73.93
2018-04-15T01:21:46.929Z,73.97
2018-04-15T01:22:53.495Z,74.01
2018-04-15T01:24:00.046Z,74.02
2018-04-15T01:25:06.594Z,74.09
2018-04-15T01:26:13.173Z,74.13
2018-04-15T01:27:19.699Z,74.18
2018-04-15T01:28:26.294Z,74.20
2018-04-15T01:29:32.827Z,74.25
2018-04-15T01:30:38.611Z,74.27
2018-04-15T01:31:44.407Z,74.35
2018-04-15T01:32:50.170Z,74.41
2018-04-15T01:33:56.719Z,74.40
2018-04-15T01:35:02.489Z,74.37
2018-04-15T01:36:09.017Z,74.35
2018-04-15T01:37:14.795Z,74.35
2018-04-15T01:38:20.591Z,74.34
2018-04-15T01:39:26.359Z,74.36
2018-04-15T01:40:32.899Z,74.36
2018-04-15T01:41:38.666Z,74.40
2018-04-15T01:42:45.218Z,74.46
2018-04-15T01:43:51.744Z,74.49
2018-04-15T01:44:57.528Z,74.55
2018-04-15T01:46:03.827Z,74.62
2018-04-15T01:47:09.605Z,74.67
2018-04-15T01:48:16.916Z,74.75
2018-04-15T01:49:22.694Z,74.79
2018-04-15T01:50:28.455Z,74.81
2018-04-15T01:51:34.249Z,74.86
2018-04-15T01:52:40.018Z,74.88
2018-04-15T01:53:45.807Z,74.91
2018-04-15T01:54:52.343Z,74.91
2018-04-15T01:55:58.128Z,74.93
2018-04-15T01:57:03.931Z,74.96
2018-04-15T01:58:09.702Z,74.99
2018-04-15T01:59:16.248Z,75.01
2018-04-15T02:00:22.779Z,75.01
2018-04-15T02:01:28.586Z,75.01
2018-04-15T02:02:34.428Z,75.03
2018-04-15T02:03:40.220Z,75.05
2018-04-15T02:04:46.011Z,75.04
2018-04-15T02:05:51.774Z,75.05
2018-04-15T02:06:57.587Z,75.05
2018-04-15T02:08:03.559Z,75.04
2018-04-15T02:09:09.349Z,75.02
2018-04-15T02:10:15.147Z,75.01
2018-04-15T02:11:20.941Z,75.06
2018-04-15T02:12:27.511Z,75.05
2018-04-15T02:13:33.831Z,75.06
2018-04-15T02:14:39.611Z,75.08
2018-04-15T02:15:45.403Z,75.11
2018-04-15T02:16:51.176Z,75.12
2018-04-15T02:17:56.992Z,75.13
2018-04-15T02:19:02.283Z,75.14
2018-04-15T02:20:08.051Z,75.13
2018-04-15T02:21:13.845Z,75.09
2018-04-15T02:22:20.426Z,75.10
2018-04-15T02:23:26.411Z,75.08
2018-04-15T02:24:32.198Z,75.26
2018-04-15T02:25:38.740Z,75.27
2018-04-15T02:26:44.536Z,75.24
2018-04-15T02:27:50.308Z,75.33
2018-04-15T02:28:56.360Z,75.40
2018-04-15T02:30:02.153Z,75.50
2018-04-15T02:31:07.929Z,75.64
2018-04-15T02:32:13.718Z,75.60
2018-04-15T02:33:19.496Z,75.66
2018-04-15T02:34:25.283Z,75.68
2018-04-15T02:35:31.059Z,75.69
2018-04-15T02:36:36.495Z,75.61
2018-04-15T02:37:42.294Z,75.65
2018-04-15T02:38:47.602Z,75.74
2018-04-15T02:39:53.376Z,75.73
2018-04-15T02:40:59.155Z,75.76
2018-04-15T02:42:04.742Z,75.74
2018-04-15T02:43:10.530Z,75.80
2018-04-15T02:44:16.304Z,75.79
2018-04-15T02:45:22.089Z,75.91
2018-04-15T02:46:28.653Z,75.88
2018-04-15T02:47:35.192Z,75.87
2018-04-15T02:48:41.031Z,75.88
2018-04-15T02:49:46.805Z,75.90
2018-04-15T02:50:53.343Z,75.96
2018-04-15T02:51:59.131Z,76.02
2018-04-15T02:53:04.897Z,76.06
2018-04-15T02:54:10.694Z,76.23
2018-04-15T02:55:17.215Z,76.31
2018-04-15T02:56:22.975Z,76.31
2018-04-15T02:57:29.544Z,76.33
2018-04-15T02:58:35.304Z,76.34
2018-04-15T02:59:41.096Z,76.39
2018-04-15T03:00:46.866Z,76.57
2018-04-15T03:01:53.443Z,76.62
2018-04-15T03:02:59.211Z,76.59
2018-04-15T03:04:04.759Z,76.57
2018-04-15T03:05:10.601Z,76.64
2018-04-15T03:06:16.368Z,76.63
2018-04-15T03:07:22.138Z,76.65
2018-04-15T03:08:28.683Z,76.69
2018-04-15T03:09:35.212Z,76.78
2018-04-15T03:10:40.781Z,76.81
2018-04-15T03:11:46.556Z,77.02
2018-04-15T03:12:52.340Z,77.12
2018-04-15T03:13:58.313Z,77.11
2018-04-15T03:15:03.838Z,77.12
2018-04-15T03:16:09.635Z,77.15
2018-04-15T03:17:15.419Z,77.18
2018-04-15T03:18:20.882Z,77.19
2018-04-15T03:19:27.482Z,77.22
2018-04-15T03:20:33.455Z,77.24
2018-04-15T03:21:39.354Z,77.28
2018-04-15T03:22:45.132Z,77.29
2018-04-15T03:23:50.901Z,77.29
2018-04-15T03:24:57.449Z,77.30
2018-04-15T03:26:03.215Z,77.31
2018-04-15T03:27:09.765Z,77.36
2018-04-15T03:28:15.599Z,77.37
2018-04-15T03:29:21.363Z,77.37
2018-04-15T03:30:27.952Z,77.45
2018-04-15T03:31:33.707Z,77.49
2018-04-15T03:32:39.535Z,77.57
2018-04-15T03:33:45.307Z,77.64
2018-04-15T03:34:51.099Z,77.69
2018-04-15T03:35:57.634Z,77.76
2018-04-15T03:37:04.170Z,77.78
2018-04-15T03:38:09.967Z,77.99
2018-04-15T03:39:15.822Z,77.99
2018-04-15T03:40:21.602Z,78.05
2018-04-15T03:41:27.367Z,78.00
2018-04-15T03:42:33.145Z,77.95
2018-04-15T03:43:38.930Z,77.93
2018-04-15T03:44:44.698Z,77.91
2018-04-15T03:45:51.250Z,77.89
2018-04-15T03:46:57.019Z,77.84
2018-04-15T03:48:03.287Z,77.84
2018-04-15T03:49:09.079Z,77.81
2018-04-15T03:50:14.853Z,77.79
2018-04-15T03:51:21.377Z,77.78
2018-04-15T03:52:27.142Z,77.85
2018-04-15T03:53:33.680Z,77.84
2018-04-15T03:54:39.471Z,77.83
2018-04-15T03:55:45.247Z,77.79
2018-04-15T03:56:51.007Z,77.80
2018-04-15T03:57:56.776Z,77.80
2018-04-15T03:59:03.420Z,77.91
2018-04-15T04:00:09.307Z,78.02
2018-04-15T04:01:15.076Z,78.13
2018-04-15T04:02:20.842Z,78.06
2018-04-15T04:03:26.610Z,78.14
2018-04-15T04:04:33.156Z,78.18
2018-04-15T04:05:38.952Z,78.15
2018-04-15T04:06:44.732Z,78.07
2018-04-15T04:07:50.503Z,78.02
2018-04-15T04:08:57.053Z,77.97
2018-04-15T04:10:03.591Z,77.92
2018-04-15T04:11:09.383Z,77.86
2018-04-15T04:12:15.169Z,77.83
2018-04-15T04:13:20.766Z,77.79
2018-04-15T04:14:26.700Z,77.76
2018-04-15T04:15:32.239Z,77.78
2018-04-15T04:16:38.020Z,77.80
2018-04-15T04:18:00.324Z,77.82
2018-04-15T04:19:22.891Z,77.80
2018-04-15T04:20:45.516Z,77.81
2018-04-15T04:22:08.255Z,77.84
2018-04-15T04:23:30.928Z,77.85
2018-04-15T04:24:54.352Z,77.88
2018-04-15T04:26:07.252Z,77.90
2018-04-15T04:27:13.279Z,77.98
2018-04-15T04:28:19.083Z,78.07
2018-04-15T04:29:24.855Z,78.12
2018-04-15T04:30:30.625Z,78.34
2018-04-15T04:31:36.074Z,78.40
2018-04-15T04:32:41.872Z,78.40
2018-04-15T04:33:47.644Z,78.37
2018-04-15T04:34:53.411Z,78.30
2018-04-15T04:35:59.171Z,78.33
2018-04-15T04:37:05.717Z,78.35
2018-04-15T04:38:11.508Z,78.30
2018-04-15T04:39:17.284Z,78.21
2018-04-15T04:40:23.063Z,78.14
2018-04-15T04:41:29.278Z,78.12
2018-04-15T04:42:35.050Z,78.06
2018-04-15T04:43:40.835Z,77.99
2018-04-15T04:44:46.317Z,77.96
2018-04-15T04:45:52.083Z,77.92
2018-04-15T04:46:58.621Z,77.89
2018-04-15T04:48:05.202Z,77.83
2018-04-15T04:49:11.748Z,77.80
2018-04-15T04:50:17.532Z,77.71
2018-04-15T04:51:23.305Z,77.64
2018-04-15T04:52:29.118Z,77.56
2018-04-15T04:53:34.878Z,77.48
2018-04-15T04:54:40.675Z,77.44
2018-04-15T04:55:47.219Z,77.39
2018-04-15T04:56:52.996Z,77.30
2018-04-15T04:57:58.757Z,77.25
2018-04-15T04:59:04.557Z,77.22
2018-04-15T05:00:11.119Z,77.15
2018-04-15T05:01:17.659Z,77.10
2018-04-15T05:02:24.202Z,76.99
2018-04-15T05:03:29.767Z,76.89
2018-04-15T05:04:35.535Z,76.80
2018-04-15T05:05:41.356Z,76.69
2018-04-15T05:06:47.968Z,76.59
2018-04-15T05:07:53.727Z,76.55
2018-04-15T05:08:59.570Z,76.55
2018-04-15T05:10:05.342Z,76.50
2018-04-15T05:11:11.936Z,76.46
2018-04-15T05:12:17.699Z,76.37
2018-04-15T05:13:23.512Z,76.28
2018-04-15T05:14:29.273Z,76.16
2018-04-15T05:15:35.034Z,75.99
2018-04-15T05:16:40.834Z,75.82
2018-04-15T05:17:46.595Z,75.64
2018-04-15T05:18:52.370Z,75.53
2018-04-15T05:19:58.155Z,75.38
2018-04-15T05:21:04.009Z,75.25
2018-04-15T05:22:09.803Z,75.14
2018-04-15T05:23:15.568Z,75.08
2018-04-15T05:24:22.119Z,75.09
2018-04-15T05:25:27.886Z,75.02
2018-04-15T05:26:33.685Z,74.99
2018-04-15T05:27:39.475Z,74.91
2018-04-15T05:28:45.259Z,74.85
2018-04-15T05:29:51.072Z,74.80
2018-04-15T05:30:56.863Z,74.84
2018-04-15T05:32:02.636Z,74.84
2018-04-15T05:33:08.437Z,74.80
2018-04-15T05:34:14.228Z,74.68
2018-04-15T05:35:19.990Z,74.58
2018-04-15T05:36:25.527Z,74.52
2018-04-15T05:37:31.360Z,74.43
2018-04-15T05:38:37.300Z,74.29
2018-04-15T05:39:43.211Z,74.20
2018-04-15T05:40:49.733Z,74.08
2018-04-15T05:41:55.511Z,73.91
2018-04-15T05:43:01.288Z,73.77
2018-04-15T05:44:07.081Z,73.61
2018-04-15T05:45:12.847Z,73.44
2018-04-15T05:46:19.395Z,73.31
2018-04-15T05:47:25.167Z,73.15
2018-04-15T05:48:30.934Z,72.98
2018-04-15T05:49:36.728Z,72.85
2018-04-15T05:50:43.271Z,72.72
2018-04-15T05:51:49.819Z,72.57
2018-04-15T05:52:55.588Z,72.50
2018-04-15T05:54:01.436Z,72.45
2018-04-15T05:55:07.990Z,72.29
2018-04-15T05:56:14.315Z,72.07
2018-04-15T05:57:20.077Z,71.71
2018-04-15T05:58:25.888Z,71.45
2018-04-15T05:59:31.675Z,71.40
2018-04-15T06:00:37.648Z,71.37
2018-04-15T06:01:43.414Z,71.31
2018-04-15T06:02:49.196Z,71.26
2018-04-15T06:03:55.730Z,71.28
2018-04-15T06:05:01.502Z,71.29
2018-04-15T06:06:07.312Z,71.29
2018-04-15T06:07:13.079Z,71.27
2018-04-15T06:08:19.682Z,71.03
2018-04-15T06:09:25.459Z,71.03
2018-04-15T06:10:31.236Z,71.10
2018-04-15T06:11:37.051Z,71.14
2018-04-15T06:12:43.031Z,70.85
2018-04-15T06:13:49.570Z,70.70
2018-04-15T06:14:55.375Z,70.73
2018-04-15T06:16:02.091Z,70.66
2018-04-15T06:17:07.899Z,70.42
2018-04-15T06:18:13.668Z,70.12
2018-04-15T06:19:21.173Z,69.93
2018-04-15T06:20:27.062Z,69.71
2018-04-15T06:21:32.590Z,69.57
2018-04-15T06:22:38.412Z,69.32
2018-04-15T06:23:44.163Z,69.07
2018-04-15T06:24:49.935Z,68.99
2018-04-15T06:25:55.702Z,69.00
2018-04-15T06:27:01.476Z,69.17
2018-04-15T06:28:07.269Z,69.20
2018-04-15T06:29:13.060Z,69.57
2018-04-15T06:30:18.831Z,69.78
2018-04-15T06:31:24.605Z,69.75
2018-04-15T06:32:31.136Z,69.56
2018-04-15T06:33:36.935Z,69.33
2018-04-15T06:34:43.488Z,69.00
2018-04-15T06:35:50.033Z,68.88
2018-04-15T06:36:55.850Z,68.75
2018-04-15T06:38:01.799Z,68.61
2018-04-15T06:39:06.787Z,68.47
2018-04-15T06:40:12.559Z,68.30
2018-04-15T06:41:18.339Z,68.04
2018-04-15T06:42:24.107Z,67.76
2018-04-15T06:43:29.871Z,67.51
2018-04-15T06:44:35.588Z,67.47
2018-04-15T06:45:41.360Z,67.00
2018-04-15T06:46:47.131Z,66.76
2018-04-15T06:47:52.928Z,66.70
2018-04-15T06:48:58.716Z,66.57
2018-04-15T06:50:04.513Z,66.42
2018-04-15T06:51:10.077Z,66.17
2018-04-15T06:52:15.847Z,65.85
2018-04-15T06:53:21.634Z,65.82
2018-04-15T06:54:27.389Z,65.61
2018-04-15T06:55:33.180Z,65.08
2018-04-15T06:56:39.710Z,64.81
2018-04-15T06:57:45.483Z,64.69
2018-04-15T06:58:52.017Z,64.01
2018-04-15T06:59:57.790Z,63.62
2018-04-15T07:01:04.343Z,63.21
2018-04-15T07:02:10.871Z,62.79
2018-04-15T07:03:16.655Z,62.13
2018-04-15T07:04:23.206Z,61.35
2018-04-15T07:05:29.728Z,60.88
2018-04-15T07:06:35.523Z,60.12
2018-04-15T07:07:41.288Z,59.25
2018-04-15T07:08:47.067Z,58.46
2018-04-15T07:09:52.611Z,57.92
2018-04-15T07:10:58.392Z,56.80
2018-04-15T07:12:04.168Z,56.29
2018-04-15T07:13:09.930Z,55.81
2018-04-15T07:14:15.725Z,55.31
2018-04-15T07:15:21.491Z,54.54
2018-04-15T07:16:27.325Z,53.55
2018-04-15T07:17:34.039Z,52.62
2018-04-15T07:18:40.583Z,52.08
2018-04-15T07:19:47.875Z,51.29
2018-04-15T07:20:53.639Z,50.56
2018-04-15T07:21:59.402Z,49.71
2018-04-15T07:23:05.232Z,48.74
2018-04-15T07:24:11.079Z,47.52
2018-04-15T07:25:16.842Z,46.80
2018-04-15T07:26:22.626Z,45.75
2018-04-15T07:27:28.594Z,45.13
2018-04-15T07:28:35.154Z,44.53
2018-04-15T07:29:41.688Z,44.00
2018-04-15T07:30:47.476Z,43.62
2018-04-15T07:31:53.239Z,43.14
2018-04-15T07:32:59.033Z,42.11
2018-04-15T07:34:05.584Z,40.87
2018-04-15T07:35:12.116Z,40.46
2018-04-15T07:36:17.683Z,40.37
2018-04-15T07:37:24.217Z,39.46
2018-04-15T07:38:29.747Z,38.59
2018-04-15T07:39:35.535Z,38.31
2018-04-15T07:40:41.307Z,38.06
2018-04-15T07:41:47.170Z,38.07
2018-04-15T07:42:52.947Z,38.01
2018-04-15T07:43:59.509Z,37.45
2018-04-15T07:45:06.056Z,37.58
2018-04-15T07:46:11.837Z,37.67
2018-04-15T07:47:17.599Z,37.81
2018-04-15T07:48:23.364Z,37.43
2018-04-15T07:49:29.144Z,36.53
2018-04-15T07:50:35.711Z,36.29
2018-04-15T07:51:42.243Z,35.97
2018-04-15T07:52:48.025Z,35.63
2018-04-15T07:53:53.791Z,35.37
2018-04-15T07:54:59.557Z,34.98
2018-04-15T07:56:05.347Z,34.84
2018-04-15T07:57:11.123Z,34.89
2018-04-15T07:58:16.904Z,35.31
2018-04-15T07:59:23.438Z,35.57
2018-04-15T08:00:29.215Z,35.83
2018-04-15T08:01:35.776Z,36.35
2018-04-15T08:02:42.334Z,36.61
2018-04-15T08:03:48.874Z,36.80
2018-04-15T08:04:54.636Z,36.83
2018-04-15T08:06:01.181Z,36.71
2018-04-15T08:07:07.736Z,36.66
2018-04-15T08:08:13.510Z,37.06
2018-04-15T08:09:20.043Z,37.22
2018-04-15T08:10:27.523Z,37.38
2018-04-15T08:11:33.279Z,37.82
2018-04-15T08:12:39.843Z,37.93
2018-04-15T08:13:46.384Z,37.56
2018-04-15T08:14:52.163Z,37.15
2018-04-15T08:15:57.932Z,36.64
2018-04-15T08:17:03.880Z,35.99
2018-04-15T08:18:09.703Z,35.40
2018-04-15T08:19:15.480Z,34.48
2018-04-15T08:20:21.760Z,33.47
2018-04-15T08:21:28.148Z,32.57
2018-04-15T08:22:33.936Z,31.98
2018-04-15T08:23:39.724Z,31.80
2018-04-15T08:24:45.616Z,31.86
2018-04-15T08:25:51.530Z,31.58
2018-04-15T08:26:57.420Z,31.10
2018-04-15T08:28:03.190Z,30.81
2018-04-15T08:29:10.126Z,30.32
2018-04-15T08:30:15.695Z,29.90
2018-04-15T08:31:22.296Z,29.27
2018-04-15T08:32:28.067Z,29.00
2018-04-15T08:33:33.871Z,28.91
2018-04-15T08:34:40.003Z,28.53
2018-04-15T08:35:45.812Z,28.24
2018-04-15T08:36:52.716Z,27.45
2018-04-15T08:37:58.504Z,26.84
2018-04-15T08:39:03.620Z,26.57
2018-04-15T08:40:09.535Z,26.63
2018-04-15T08:41:15.443Z,26.87
2018-04-15T08:42:22.083Z,26.76
2018-04-15T08:43:28.094Z,26.62
2018-04-15T08:44:36.907Z,26.53
2018-04-15T08:45:43.643Z,26.16
2018-04-15T08:46:50.183Z,25.52
2018-04-15T08:47:56.349Z,25.23
2018-04-15T08:49:03.218Z,25.04
2018-04-15T08:50:09.788Z,24.85
2018-04-15T08:51:17.263Z,24.86
2018-04-15T08:52:24.644Z,25.23
2018-04-15T08:53:31.239Z,25.54
2018-04-15T08:54:38.610Z,25.31
2018-04-15T08:55:44.408Z,25.17
2018-04-15T08:56:50.203Z,25.54
2018-04-15T08:57:56.696Z,25.61
2018-04-15T08:59:03.224Z,25.95
2018-04-15T09:00:09.337Z,26.12
2018-04-15T09:01:15.147Z,26.50
2018-04-15T09:02:21.740Z,26.49
2018-04-15T09:03:28.267Z,26.02
2018-04-15T09:04:34.038Z,26.13
2018-04-15T09:05:40.613Z,25.86
2018-04-15T09:06:47.145Z,25.51
2018-04-15T09:07:57.723Z,25.75
2018-04-15T09:09:03.806Z,25.68
2018-04-15T09:10:10.863Z,25.28
2018-04-15T09:11:16.813Z,25.01
2018-04-15T09:12:22.715Z,24.93
2018-04-15T09:13:29.518Z,24.92
2018-04-15T09:14:35.463Z,25.09
2018-04-15T09:15:42.707Z,24.94
2018-04-15T09:16:48.786Z,24.91
2018-04-15T09:17:56.715Z,24.50
2018-04-15T09:19:03.215Z,24.19
2018-04-15T09:20:10.052Z,23.87
2018-04-15T09:21:16.035Z,23.32
2018-04-15T09:22:22.749Z,22.97
2018-04-15T09:23:29.713Z,22.92
2018-04-15T09:24:36.709Z,22.77
2018-04-15T09:25:43.387Z,22.73
2018-04-15T09:26:49.280Z,22.63
2018-04-15T09:27:55.958Z,22.41
2018-04-15T09:29:01.905Z,21.96
2018-04-15T09:30:09.880Z,21.94
2018-04-15T09:31:15.923Z,22.00
2018-04-15T09:32:22.188Z,21.88
2018-04-15T09:33:28.237Z,21.81
2018-04-15T09:34:34.617Z,21.79
2018-04-15T09:35:41.586Z,21.94
2018-04-15T09:36:48.671Z,21.94
2018-04-15T09:37:55.840Z,21.94
2018-04-15T09:39:02.080Z,22.08
2018-04-15T09:40:08.127Z,22.26
2018-04-15T09:41:14.068Z,22.58
2018-04-15T09:42:20.982Z,22.98
2018-04-15T09:43:26.958Z,22.84
2018-04-15T09:44:33.341Z,22.92
2018-04-15T09:45:39.160Z,22.97
2018-04-15T09:46:46.482Z,22.90
2018-04-15T09:47:52.294Z,22.80
2018-04-15T09:48:58.942Z,22.45
2018-04-15T09:50:07.233Z,22.20
2018-04-15T09:51:13.283Z,22.36
2018-04-15T09:52:20.741Z,22.50
2018-04-15T09:53:27.920Z,22.65
2018-04-15T09:54:34.435Z,22.75
2018-04-15T09:55:40.784Z,22.86
2018-04-15T09:56:47.058Z,22.82
2018-04-15T09:57:53.455Z,22.79
2018-04-15T09:59:00.161Z,22.59
2018-04-15T10:00:07.565Z,22.07
2018-04-15T10:01:17.477Z,21.96
2018-04-15T10:02:23.522Z,21.84
2018-04-15T10:03:29.655Z,22.04
2018-04-15T10:04:36.571Z,22.27
2018-04-15T10:05:43.287Z,22.55
2018-04-15T10:06:50.147Z,22.46
2018-04-15T10:07:56.939Z,22.62
2018-04-15T10:09:02.967Z,22.60
2018-04-15T10:10:11.688Z,22.65
2018-04-15T10:11:18.508Z,22.68
2018-04-15T10:12:24.511Z,22.71
2018-04-15T10:13:30.638Z,22.76
2018-04-15T10:14:41.764Z,22.89
2018-04-15T10:15:48.751Z,23.08
2018-04-15T10:16:55.750Z,23.21
2018-04-15T10:18:01.942Z,23.45
2018-04-15T10:19:08.074Z,23.66
2018-04-15T10:20:14.091Z,23.84
2018-04-15T10:21:20.066Z,24.02
2018-04-15T10:22:26.029Z,24.28
2018-04-15T10:23:31.954Z,24.31
2018-04-15T10:24:39.039Z,24.46
2018-04-15T10:25:45.662Z,24.71
2018-04-15T10:26:52.560Z,24.79
2018-04-15T10:27:59.479Z,24.90
2018-04-15T10:29:06.897Z,25.12
2018-04-15T10:30:12.697Z,25.25
2018-04-15T10:31:18.802Z,25.44
2018-04-15T10:32:24.750Z,25.50
2018-04-15T10:33:31.395Z,25.53
2018-04-15T10:34:38.229Z,25.57
2018-04-15T10:35:46.504Z,25.58
2018-04-15T10:36:52.688Z,25.64
2018-04-15T10:37:59.676Z,25.93
2018-04-15T10:39:05.749Z,26.25
2018-04-15T10:40:11.661Z,26.58
2018-04-15T10:41:17.642Z,26.79
2018-04-15T10:42:23.546Z,27.03
2018-04-15T10:43:29.332Z,27.32
2018-04-15T10:44:36.097Z,27.35
2018-04-15T10:45:42.245Z,27.55
2018-04-15T10:46:48.893Z,27.66
2018-04-15T10:47:55.723Z,27.99
2018-04-15T10:49:02.119Z,28.31
2018-04-15T10:50:08.342Z,28.42
2018-04-15T10:51:14.253Z,28.53
2018-04-15T10:52:20.275Z,28.69
2018-04-15T10:53:26.324Z,28.94
2018-04-15T10:54:32.146Z,29.12
2018-04-15T10:55:38.183Z,29.45
2018-04-15T10:56:46.377Z,29.65
2018-04-15T10:57:55.325Z,30.00
2018-04-15T10:59:01.276Z,30.28
2018-04-15T11:00:07.534Z,30.64
2018-04-15T11:01:13.577Z,30.71
2018-04-15T11:02:19.524Z,30.75
2018-04-15T11:03:26.493Z,30.73
2018-04-15T11:04:32.602Z,30.90
2018-04-15T11:05:39.419Z,31.39
2018-04-15T11:06:46.434Z,31.61
2018-04-15T11:07:53.454Z,31.84
2018-04-15T11:08:59.603Z,32.04
2018-04-15T11:10:05.436Z,32.35
2018-04-15T11:11:12.149Z,32.46
2018-04-15T11:12:19.903Z,32.50
2018-04-15T11:13:26.694Z,32.70
2018-04-15T11:14:32.793Z,32.82
2018-04-15T11:15:41.303Z,33.27
2018-04-15T11:16:47.919Z,33.61
2018-04-15T11:17:54.931Z,33.87
2018-04-15T11:19:01.929Z,34.13
2018-04-15T11:20:07.774Z,34.44
2018-04-15T11:21:13.479Z,34.71
2018-04-15T11:22:20.793Z,35.20
2018-04-15T11:23:26.842Z,35.37
2018-04-15T11:24:33.394Z,35.54
2018-04-15T11:25:39.747Z,35.69
2018-04-15T11:26:47.351Z,35.96
2018-04-15T11:27:53.131Z,36.32
2018-04-15T11:28:59.000Z,36.55
2018-04-15T11:30:07.888Z,36.52
2018-04-15T11:31:13.767Z,36.40
2018-04-15T11:32:21.284Z,36.55
2018-04-15T11:33:27.088Z,36.70
2018-04-15T11:34:33.688Z,36.75
2018-04-15T11:35:39.611Z,36.85
2018-04-15T11:37:56.775Z,36.75
2018-04-15T11:39:03.481Z,36.69
2018-04-15T11:40:09.272Z,36.87
2018-04-15T11:41:15.049Z,36.81
2018-04-15T11:42:21.019Z,36.58
2018-04-15T11:43:26.814Z,36.26
2018-04-15T11:44:32.603Z,36.20
2018-04-15T11:45:38.456Z,36.34
2018-04-15T11:46:44.230Z,36.50
2018-04-15T11:47:50.140Z,36.66
2018-04-15T11:48:55.907Z,36.61
2018-04-15T11:50:01.717Z,36.51
2018-04-15T11:51:07.496Z,36.64
2018-04-15T11:52:13.265Z,36.47
2018-04-15T11:53:19.060Z,36.42
2018-04-15T11:54:24.870Z,36.43
2018-04-15T11:55:30.715Z,36.29
2018-04-15T11:56:37.291Z,36.19
2018-04-15T11:57:43.070Z,36.23
2018-04-15T11:58:48.856Z,36.25
2018-04-15T11:59:55.390Z,36.26
2018-04-15T12:01:01.230Z,36.24
2018-04-15T12:02:07.031Z,36.56
2018-04-15T12:03:13.058Z,36.67
2018-04-15T12:04:18.957Z,36.96
2018-04-15T12:05:24.713Z,37.31
2018-04-15T12:06:30.475Z,37.48
2018-04-15T12:07:37.987Z,37.63
2018-04-15T12:08:44.021Z,37.75
2018-04-15T12:09:49.819Z,37.94
2018-04-15T12:10:56.464Z,38.07
2018-04-15T12:12:02.235Z,38.74
2018-04-15T12:13:08.006Z,39.33
2018-04-15T12:14:14.540Z,39.69
2018-04-15T12:15:21.088Z,39.67
2018-04-15T12:16:26.862Z,39.65
2018-04-15T12:17:33.439Z,39.47
2018-04-15T12:18:39.485Z,39.77
2018-04-15T12:19:45.287Z,40.09
2018-04-15T12:20:51.109Z,40.22
2018-04-15T12:21:56.885Z,40.34
2018-04-15T12:23:03.628Z,40.32
2018-04-15T12:24:09.400Z,40.43
2018-04-15T12:25:15.948Z,40.47
2018-04-15T12:26:21.751Z,40.47
2018-04-15T12:27:27.552Z,40.39
2018-04-15T12:28:34.076Z,40.47
2018-04-15T12:29:39.868Z,40.71
2018-04-15T12:30:47.460Z,40.87
2018-04-15T12:31:53.396Z,41.24
2018-04-15T12:32:59.187Z,41.41
2018-04-15T12:34:04.980Z,41.66
2018-04-15T12:35:10.753Z,41.85
2018-04-15T12:36:16.527Z,41.86
2018-04-15T12:37:22.459Z,41.84
2018-04-15T12:38:28.267Z,41.76
2018-04-15T12:39:34.032Z,41.63
2018-04-15T12:40:39.856Z,41.73
2018-04-15T12:41:45.635Z,41.74
2018-04-15T12:42:51.438Z,41.75
2018-04-15T12:43:57.197Z,41.79
2018-04-15T12:45:02.975Z,41.73
2018-04-15T12:46:09.523Z,41.59
2018-04-15T12:47:16.809Z,41.34
2018-04-15T12:48:22.839Z,41.44
2018-04-15T12:49:28.609Z,41.55
2018-04-15T12:50:35.167Z,41.41
2018-04-15T12:51:42.331Z,41.55
2018-04-15T12:52:49.341Z,41.50
2018-04-15T12:53:55.257Z,41.40
2018-04-15T12:55:02.167Z,41.16
2018-04-15T12:56:08.087Z,40.98
2018-04-15T12:57:13.709Z,40.98
2018-04-15T12:58:20.299Z,40.97
2018-04-15T12:59:26.075Z,40.68
2018-04-15T13:00:31.885Z,40.61
2018-04-15T13:01:37.662Z,40.61
2018-04-15T13:02:43.439Z,40.53
2018-04-15T13:03:49.232Z,40.36
2018-04-15T13:04:55.024Z,40.35
2018-04-15T13:06:00.867Z,40.45
2018-04-15T13:07:06.816Z,40.43
2018-04-15T13:08:12.890Z,40.34
2018-04-15T13:09:18.640Z,40.21
2018-04-15T13:10:25.196Z,40.50
2018-04-15T13:11:32.087Z,40.64
2018-04-15T13:12:37.859Z,40.74
2018-04-15T13:13:43.634Z,40.86
2018-04-15T13:14:49.419Z,40.71
2018-04-15T13:15:55.203Z,40.50
2018-04-15T13:17:00.984Z,40.37
2018-04-15T13:18:07.036Z,40.20
2018-04-15T13:19:12.815Z,40.17
2018-04-15T13:20:20.099Z,40.21
2018-04-15T13:21:25.655Z,40.22
2018-04-15T13:22:32.176Z,40.34
2018-04-15T13:23:37.963Z,40.35
2018-04-15T13:24:44.498Z,40.28
2018-04-15T13:25:51.012Z,40.28
2018-04-15T13:26:56.876Z,40.45
2018-04-15T13:28:02.680Z,40.34
2018-04-15T13:29:08.448Z,40.20
2018-04-15T13:30:14.234Z,40.26
2018-04-15T13:31:20.055Z,40.28
2018-04-15T13:32:25.965Z,40.28
2018-04-15T13:33:31.726Z,40.33
2018-04-15T13:34:37.492Z,40.40
2018-04-15T13:35:43.341Z,40.39
2018-04-15T13:36:50.048Z,40.48
2018-04-15T13:37:56.040Z,40.66
2018-04-15T13:39:01.803Z,40.87
2018-04-15T13:40:08.752Z,41.03
2018-04-15T13:41:14.607Z,41.14
2018-04-15T13:42:20.507Z,41.34
2018-04-15T13:43:26.424Z,41.57
2018-04-15T13:44:33.126Z,41.88
2018-04-15T13:45:39.223Z,42.03
2018-04-15T13:46:45.911Z,42.27
2018-04-15T13:47:51.468Z,42.40
2018-04-15T13:48:57.024Z,42.49
2018-04-15T13:50:02.831Z,42.60
2018-04-15T13:51:08.756Z,42.68
2018-04-15T13:52:15.351Z,42.62
2018-04-15T13:53:22.868Z,42.78
2018-04-15T13:54:28.766Z,42.92
2018-04-15T13:55:34.666Z,42.98
2018-04-15T13:56:41.257Z,43.04
2018-04-15T13:57:47.833Z,43.03
2018-04-15T13:58:53.906Z,42.99
2018-04-15T13:59:59.698Z,43.04
2018-04-15T14:01:05.991Z,42.99
2018-04-15T14:02:12.085Z,42.89
2018-04-15T14:03:18.666Z,42.57
2018-04-15T14:04:25.204Z,42.30
2018-04-15T14:05:31.141Z,42.25
2018-04-15T14:06:37.240Z,42.22
2018-04-15T14:07:43.367Z,42.23
2018-04-15T14:08:49.454Z,42.26
2018-04-15T14:09:56.314Z,42.21
2018-04-15T14:11:02.459Z,42.30
2018-04-15T14:12:08.400Z,42.40
2018-04-15T14:13:14.033Z,42.46
2018-04-15T14:14:20.001Z,42.22